createdAt,value
2019-05-13T00:00:14.080Z,65.60
2019-05-13T00:02:47.012Z,65.70
2019-05-13T00:05:20.177Z,65.80
2019-05-13T00:08:05.188Z,65.70
2019-05-13T00:10:38.533Z,65.80
2019-05-13T00:13:11.122Z,65.70
2019-05-13T00:15:44.391Z,65.90
2019-05-13T00:18:17.985Z,65.80
2019-05-13T00:20:44.556Z,66.00
2019-05-13T00:23:17.244Z,66.00
2019-05-13T00:25:50.502Z,66.00
2019-05-13T00:28:16.870Z,66.20
2019-05-13T00:30:49.808Z,66.20
2019-05-13T00:33:24.376Z,66.20
2019-05-13T00:35:50.764Z,66.20
2019-05-13T00:38:17.032Z,66.30
2019-05-13T00:40:49.778Z,66.30
2019-05-13T00:43:24.507Z,66.30
2019-05-13T00:45:57.078Z,66.40
2019-05-13T00:48:23.522Z,66.40
2019-05-13T00:50:56.257Z,66.30
2019-05-13T00:53:23.768Z,66.20
2019-05-13T00:55:57.317Z,66.50
2019-05-13T00:58:24.144Z,66.40
2019-05-13T01:00:57.249Z,66.40
2019-05-13T01:03:30.373Z,66.40
2019-05-13T01:06:04.329Z,66.40
2019-05-13T01:08:30.713Z,66.50
2019-05-13T01:11:10.551Z,66.50
2019-05-13T01:13:43.495Z,66.70
2019-05-13T01:16:17.060Z,66.70
2019-05-13T01:18:50.289Z,66.60
2019-05-13T01:21:23.857Z,66.60
2019-05-13T01:23:50.532Z,66.50
2019-05-13T01:26:23.740Z,66.80
2019-05-13T01:28:56.717Z,66.80
2019-05-13T01:31:30.073Z,66.80
2019-05-13T01:33:56.215Z,66.80
2019-05-13T01:39:05.053Z,66.90
2019-05-13T01:41:38.291Z,66.60
2019-05-13T01:44:13.814Z,66.90
2019-05-13T01:46:39.647Z,66.80
2019-05-13T01:49:06.101Z,66.80
2019-05-13T01:51:57.892Z,66.90
2019-05-13T01:54:24.753Z,66.90
2019-05-13T01:56:57.514Z,67.20
2019-05-13T01:59:30.819Z,67.10
2019-05-13T02:01:57.150Z,67.00
2019-05-13T02:04:30.165Z,67.20
2019-05-13T02:07:04.263Z,67.30
2019-05-13T02:09:33.535Z,67.20
2019-05-13T02:12:13.426Z,67.50
2019-05-13T02:14:46.656Z,67.40
2019-05-13T02:17:19.403Z,68.00
2019-05-13T02:19:45.660Z,67.40
2019-05-13T02:22:19.390Z,67.90
2019-05-13T02:24:53.519Z,67.70
2019-05-13T02:27:19.836Z,67.80
2019-05-13T02:29:54.032Z,67.80
2019-05-13T02:32:23.293Z,67.50
2019-05-13T02:34:48.354Z,67.70
2019-05-13T02:37:23.145Z,68.10
2019-05-13T02:39:49.115Z,68.30
2019-05-13T02:42:22.928Z,67.70
2019-05-13T02:44:52.753Z,67.80
2019-05-13T02:47:24.528Z,68.10
2019-05-13T02:49:53.260Z,67.90
2019-05-13T02:52:25.559Z,68.00
2019-05-13T02:54:52.790Z,68.00
2019-05-13T02:57:25.795Z,68.50
2019-05-13T02:59:52.826Z,68.90
2019-05-13T03:02:25.836Z,68.10
2019-05-13T03:04:52.504Z,68.20
2019-05-13T03:07:25.174Z,68.00
2019-05-13T03:09:52.737Z,68.00
2019-05-13T03:12:25.679Z,68.00
2019-05-13T03:15:13.058Z,67.80
2019-05-13T03:17:47.847Z,68.10
2019-05-13T03:20:16.754Z,68.00
2019-05-13T03:22:52.266Z,68.40
2019-05-13T03:25:16.956Z,67.90
2019-05-13T03:30:26.462Z,67.90
2019-05-13T03:33:04.053Z,67.90
2019-05-13T03:35:28.017Z,67.70
2019-05-13T03:38:03.307Z,67.60
2019-05-13T03:40:32.952Z,67.60
2019-05-13T03:43:06.343Z,67.50
2019-05-13T03:45:32.852Z,67.50
2019-05-13T03:48:06.214Z,67.90
2019-05-13T03:50:39.115Z,67.70
2019-05-13T03:53:05.460Z,67.60
2019-05-13T03:55:38.394Z,67.90
2019-05-13T03:58:13.185Z,67.80
2019-05-13T04:00:46.289Z,68.30
2019-05-13T04:03:22.536Z,68.40
2019-05-13T04:05:54.418Z,68.00
2019-05-13T04:08:22.771Z,68.20
2019-05-13T04:10:56.216Z,68.90
2019-05-13T04:13:35.348Z,68.80
2019-05-13T04:16:15.647Z,68.40
2019-05-13T04:18:48.645Z,68.70
2019-05-13T04:21:15.104Z,68.20
2019-05-13T04:23:48.477Z,69.30
2019-05-13T04:26:15.376Z,68.40
2019-05-13T04:28:52.406Z,68.70
2019-05-13T04:31:17.041Z,68.70
2019-05-13T04:33:52.848Z,68.50
2019-05-13T04:36:24.991Z,69.10
2019-05-13T04:38:52.843Z,68.70
2019-05-13T04:41:25.473Z,68.50
2019-05-13T04:43:58.336Z,69.10
2019-05-13T04:46:24.690Z,69.30
2019-05-13T04:48:57.607Z,68.90
2019-05-13T04:51:52.130Z,69.40
2019-05-13T04:54:17.064Z,69.00
2019-05-13T04:56:52.585Z,69.30
2019-05-13T04:59:18.494Z,69.20
2019-05-13T05:01:59.356Z,69.30
2019-05-13T05:05:07.777Z,69.50
2019-05-13T05:07:52.558Z,69.30
2019-05-13T05:10:55.325Z,69.50
2019-05-13T05:13:44.663Z,69.60
2019-05-13T05:16:17.459Z,69.40
2019-05-13T05:19:23.852Z,69.80
2019-05-13T05:25:29.337Z,69.50
2019-05-13T05:28:05.928Z,69.60
2019-05-13T05:30:57.002Z,69.80
2019-05-13T05:33:53.907Z,69.60
2019-05-13T05:37:05.671Z,69.80
2019-05-13T05:42:25.103Z,69.50
2019-05-13T05:44:53.762Z,69.90
2019-05-13T05:47:26.545Z,69.90
2019-05-13T05:49:54.495Z,70.60
2019-05-13T05:52:31.597Z,69.90
2019-05-13T05:54:58.369Z,69.80
2019-05-13T05:57:26.023Z,69.90
2019-05-13T06:00:02.290Z,69.70
2019-05-13T06:02:32.230Z,70.00
2019-05-13T06:05:05.856Z,69.90
2019-05-13T06:07:34.545Z,70.30
2019-05-13T06:10:07.839Z,70.10
2019-05-13T06:12:34.690Z,70.10
2019-05-13T06:15:14.132Z,70.10
2019-05-13T06:17:47.300Z,70.30
2019-05-13T06:20:21.146Z,70.20
2019-05-13T06:25:42.526Z,70.60
2019-05-13T06:28:14.110Z,70.40
2019-05-13T06:30:46.746Z,70.40
2019-05-13T06:33:13.186Z,70.30
2019-05-13T06:35:42.594Z,71.00
2019-05-13T06:38:15.342Z,70.60
2019-05-13T06:40:42.411Z,70.60
2019-05-13T06:43:08.926Z,70.70
2019-05-13T06:45:42.100Z,70.70
2019-05-13T06:48:08.412Z,70.60
2019-05-13T06:50:34.662Z,71.50
2019-05-13T06:53:08.596Z,70.80
2019-05-13T06:55:35.095Z,70.80
2019-05-13T06:58:07.753Z,70.60
2019-05-13T07:00:35.061Z,71.00
2019-05-13T07:03:08.083Z,70.70
2019-05-13T07:05:34.439Z,70.60
2019-05-13T07:08:07.383Z,70.70
2019-05-13T07:10:41.443Z,70.90
2019-05-13T07:13:08.185Z,70.90
2019-05-13T07:15:55.026Z,70.70
2019-05-13T07:18:28.279Z,70.90
2019-05-13T07:20:54.616Z,71.00
2019-05-13T07:23:27.404Z,71.00
2019-05-13T07:26:01.705Z,71.00
2019-05-13T07:28:28.182Z,71.00
2019-05-13T07:30:54.445Z,70.80
2019-05-13T07:33:27.025Z,70.70
2019-05-13T07:36:02.842Z,70.60
2019-05-13T07:38:28.801Z,70.40
2019-05-13T07:41:01.349Z,70.60
2019-05-13T07:46:18.398Z,70.70
2019-05-13T07:48:52.138Z,70.70
2019-05-13T07:51:25.692Z,71.00
2019-05-13T07:53:52.278Z,71.00
2019-05-13T07:56:24.910Z,70.70
2019-05-13T07:58:58.282Z,70.70
2019-05-13T08:01:24.635Z,70.90
2019-05-13T08:03:57.332Z,70.50
2019-05-13T08:09:21.752Z,70.70
2019-05-13T08:12:05.446Z,70.20
2019-05-13T08:14:28.696Z,70.50
2019-05-13T08:17:07.881Z,70.40
2019-05-13T08:19:41.500Z,70.80
2019-05-13T08:22:07.931Z,70.10
2019-05-13T08:24:42.451Z,70.30
2019-05-13T08:27:08.679Z,69.70
2019-05-13T08:29:42.156Z,70.40
2019-05-13T08:32:11.140Z,70.20
2019-05-13T08:34:43.834Z,69.90
2019-05-13T08:37:17.238Z,70.10
2019-05-13T08:39:52.229Z,70.10
2019-05-13T08:42:20.178Z,69.50
2019-05-13T08:44:53.533Z,70.10
2019-05-13T08:47:26.524Z,69.80
2019-05-13T08:50:03.822Z,70.70
2019-05-13T08:52:34.492Z,69.80
2019-05-13T08:55:01.502Z,68.10
2019-05-13T08:57:28.496Z,68.40
2019-05-13T09:00:04.727Z,68.70
2019-05-13T09:02:36.973Z,68.20
2019-05-13T09:05:13.160Z,68.20
2019-05-13T09:10:31.872Z,70.20
2019-05-13T09:13:05.228Z,69.20
2019-05-13T09:15:44.405Z,68.30
2019-05-13T09:18:17.822Z,68.00
2019-05-13T09:20:52.044Z,69.50
2019-05-13T09:23:18.561Z,69.10
2019-05-13T09:25:44.886Z,69.60
2019-05-13T09:28:17.945Z,69.50
2019-05-13T09:30:53.151Z,69.90
2019-05-13T09:33:21.744Z,70.10
2019-05-13T09:35:50.103Z,70.90
2019-05-13T09:38:22.747Z,73.00
2019-05-13T09:40:49.189Z,75.80
2019-05-13T09:43:22.402Z,75.20
2019-05-13T09:45:55.363Z,77.20
2019-05-13T09:48:22.720Z,76.20
2019-05-13T09:50:51.665Z,75.80
2019-05-13T09:53:24.721Z,74.70
2019-05-13T09:55:52.153Z,74.20
2019-05-13T09:58:29.461Z,74.20
2019-05-13T10:00:53.904Z,69.50
2019-05-13T10:03:29.520Z,70.60
2019-05-13T10:05:54.954Z,68.60
2019-05-13T10:08:28.247Z,63.60
2019-05-13T10:10:54.593Z,62.60
2019-05-13T10:13:27.570Z,61.40
2019-05-13T10:16:14.403Z,63.70
2019-05-13T10:18:47.366Z,61.60
2019-05-13T10:21:21.860Z,60.80
2019-05-13T10:23:58.645Z,58.60
2019-05-13T10:26:32.069Z,59.50
2019-05-13T10:29:05.605Z,57.70
2019-05-13T10:31:38.684Z,59.70
2019-05-13T10:34:13.995Z,59.10
2019-05-13T10:36:47.373Z,58.60
2019-05-13T10:39:13.832Z,59.50
2019-05-13T10:41:46.644Z,57.20
2019-05-13T10:44:19.738Z,54.70
2019-05-13T10:46:52.753Z,55.40
2019-05-13T10:49:19.362Z,54.40
2019-05-13T10:51:54.000Z,54.10
2019-05-13T10:54:21.686Z,54.20
2019-05-13T10:56:59.421Z,55.30
2019-05-13T10:59:23.354Z,54.80
2019-05-13T11:01:56.652Z,54.00
2019-05-13T11:04:32.036Z,53.10
2019-05-13T11:07:04.966Z,52.60
2019-05-13T11:09:32.557Z,52.80
2019-05-13T11:12:06.423Z,52.10
2019-05-13T11:14:42.234Z,51.00
2019-05-13T11:17:14.500Z,48.80
2019-05-13T11:19:40.885Z,45.70
2019-05-13T11:22:14.152Z,48.50
2019-05-13T11:24:43.194Z,48.90
2019-05-13T11:27:15.451Z,49.10
2019-05-13T11:29:48.419Z,50.00
2019-05-13T11:32:14.785Z,49.70
2019-05-13T11:34:47.786Z,48.80
2019-05-13T11:37:14.139Z,47.10
2019-05-13T11:39:42.803Z,48.00
2019-05-13T11:42:15.593Z,48.30
2019-05-13T11:44:42.977Z,46.50
2019-05-13T11:47:16.623Z,44.70
2019-05-13T11:49:51.346Z,45.20
2019-05-13T11:52:17.886Z,44.80
2019-05-13T11:54:44.307Z,44.60
2019-05-13T11:57:17.650Z,43.30
2019-05-13T11:59:44.207Z,44.20
2019-05-13T12:02:13.582Z,40.90
2019-05-13T12:07:32.264Z,44.40
2019-05-13T12:10:23.361Z,44.60
2019-05-13T12:12:56.404Z,43.80
2019-05-13T12:18:12.683Z,43.70
2019-05-13T12:20:41.951Z,42.90
2019-05-13T12:23:14.461Z,42.90
2019-05-13T12:25:43.648Z,43.20
2019-05-13T12:28:15.276Z,42.90
2019-05-13T12:30:48.605Z,43.50
2019-05-13T12:33:22.642Z,43.30
2019-05-13T12:35:52.567Z,44.00
2019-05-13T12:38:24.050Z,43.70
2019-05-13T12:40:57.145Z,45.50
2019-05-13T12:43:24.302Z,44.50
2019-05-13T12:45:57.296Z,44.20
2019-05-13T12:48:23.609Z,42.90
2019-05-13T12:50:56.733Z,43.00
2019-05-13T12:53:23.071Z,42.90
2019-05-13T12:55:55.789Z,42.80
2019-05-13T12:58:24.418Z,42.40
2019-05-13T13:00:57.662Z,43.60
2019-05-13T13:03:24.229Z,43.80
2019-05-13T13:06:21.209Z,43.60
2019-05-13T13:08:41.824Z,43.80
2019-05-13T13:11:00.247Z,44.40
2019-05-13T13:16:03.509Z,45.30
2019-05-13T13:18:43.727Z,46.40
2019-05-13T13:21:17.423Z,46.60
2019-05-13T13:23:50.666Z,46.90
2019-05-13T13:26:23.715Z,45.60
2019-05-13T13:29:08.350Z,45.70
2019-05-13T13:31:43.233Z,44.00
2019-05-13T13:34:13.623Z,42.90
2019-05-13T13:36:46.107Z,42.70
2019-05-13T13:39:14.972Z,43.60
2019-05-13T13:41:47.820Z,43.80
2019-05-13T13:44:24.640Z,44.30
2019-05-13T13:46:50.784Z,43.80
2019-05-13T13:49:24.193Z,42.40
2019-05-13T13:51:50.693Z,41.80
2019-05-13T13:54:23.338Z,42.10
2019-05-13T13:56:55.113Z,43.80
2019-05-13T13:59:18.472Z,44.90
2019-05-13T14:01:54.800Z,44.40
2019-05-13T14:04:19.125Z,44.50
2019-05-13T14:06:32.043Z,45.00
2019-05-13T14:07:08.959Z,45.40
2019-05-13T14:09:27.722Z,43.80
2019-05-13T14:12:02.034Z,43.80
2019-05-13T14:14:28.752Z,43.20
2019-05-13T14:17:08.441Z,43.40
2019-05-13T14:19:48.664Z,45.30
2019-05-13T14:22:28.971Z,44.10
2019-05-13T14:24:55.222Z,43.70
2019-05-13T14:27:28.399Z,44.20
2019-05-13T14:29:54.660Z,45.70
2019-05-13T14:32:22.446Z,43.60
2019-05-13T14:34:55.047Z,45.20
2019-05-13T14:37:28.148Z,44.50
2019-05-13T14:42:45.973Z,46.00
2019-05-13T14:45:12.637Z,45.70
2019-05-13T14:50:36.968Z,45.00
2019-05-13T14:53:03.418Z,46.10
2019-05-13T14:55:36.318Z,44.10
2019-05-13T14:58:02.954Z,45.30
2019-05-13T15:00:29.401Z,44.50
2019-05-13T15:03:03.066Z,45.90
2019-05-13T15:05:36.059Z,46.90
2019-05-13T15:08:09.470Z,45.50
2019-05-13T15:10:36.238Z,45.70
2019-05-13T15:13:03.154Z,46.40
2019-05-13T15:15:36.388Z,46.90
2019-05-13T15:18:22.550Z,48.10
2019-05-13T15:21:15.931Z,47.80
2019-05-13T15:23:42.467Z,47.20
2019-05-13T15:26:15.730Z,46.70
2019-05-13T15:28:51.095Z,46.90
2019-05-13T15:31:17.398Z,47.90
2019-05-13T15:33:43.835Z,47.30
2019-05-13T15:36:16.831Z,47.20
2019-05-13T15:38:43.108Z,48.50
2019-05-13T15:41:15.922Z,48.00
2019-05-13T15:43:42.557Z,49.00
2019-05-13T15:46:16.165Z,48.50
2019-05-13T15:48:42.428Z,49.70
2019-05-13T15:51:11.120Z,48.80
2019-05-13T15:53:43.743Z,49.30
2019-05-13T15:56:12.469Z,47.60
2019-05-13T15:58:44.766Z,49.20
2019-05-13T16:01:29.931Z,50.20
2019-05-13T16:04:03.146Z,47.90
2019-05-13T16:06:32.026Z,50.00
2019-05-13T16:09:04.346Z,50.00
2019-05-13T16:11:32.619Z,50.70
2019-05-13T16:14:05.745Z,49.10
2019-05-13T16:16:38.427Z,51.00
2019-05-13T16:19:11.325Z,48.70
2019-05-13T16:21:44.719Z,51.10
2019-05-13T16:26:53.572Z,50.50
2019-05-13T16:29:26.716Z,49.80
2019-05-13T16:31:53.079Z,48.30
2019-05-13T16:37:17.264Z,50.50
2019-05-13T16:39:43.612Z,50.10
2019-05-13T16:42:16.528Z,49.80
2019-05-13T16:44:43.175Z,50.30
2019-05-13T16:47:16.505Z,48.90
2019-05-13T16:49:49.649Z,48.90
2019-05-13T16:52:22.916Z,50.20
2019-05-13T16:54:56.162Z,48.60
2019-05-13T16:57:22.628Z,50.00
2019-05-13T17:00:14.676Z,49.50
2019-05-13T17:02:42.134Z,49.70
2019-05-13T17:05:16.015Z,50.10
2019-05-13T17:07:42.485Z,50.80
2019-05-13T17:10:17.234Z,50.50
2019-05-13T17:15:35.136Z,51.00
2019-05-13T17:18:11.881Z,51.50
2019-05-13T17:20:51.889Z,51.00
2019-05-13T17:23:24.373Z,51.00
2019-05-13T17:25:57.676Z,50.90
2019-05-13T17:28:45.155Z,47.80
2019-05-13T17:31:17.848Z,49.10
2019-05-13T17:33:51.992Z,51.00
2019-05-13T17:36:18.662Z,50.90
2019-05-13T17:38:45.021Z,50.70
2019-05-13T17:41:18.089Z,49.60
2019-05-13T17:43:44.308Z,50.50
2019-05-13T17:46:16.972Z,50.70
2019-05-13T17:48:43.452Z,48.60
2019-05-13T17:51:16.605Z,50.20
2019-05-13T17:53:43.147Z,49.80
2019-05-13T17:56:16.591Z,49.70
2019-05-13T17:58:42.845Z,49.60
2019-05-13T18:01:16.071Z,50.70
2019-05-13T18:03:42.624Z,50.00
2019-05-13T18:06:15.878Z,50.00
2019-05-13T18:08:42.819Z,49.60
2019-05-13T18:11:11.240Z,50.20
2019-05-13T18:13:44.162Z,50.00
2019-05-13T18:16:17.526Z,49.70
2019-05-13T18:18:52.096Z,50.00
2019-05-13T18:21:32.130Z,49.80
2019-05-13T18:24:05.865Z,49.70
2019-05-13T18:26:32.400Z,50.30
2019-05-13T18:29:05.100Z,50.70
2019-05-13T18:31:31.710Z,50.20
2019-05-13T18:34:05.314Z,49.50
2019-05-13T18:36:32.152Z,50.90
2019-05-13T18:39:05.227Z,50.40
2019-05-13T18:41:31.748Z,50.90
2019-05-13T18:44:04.341Z,50.80
2019-05-13T18:46:32.262Z,51.30
2019-05-13T18:49:05.727Z,50.70
2019-05-13T18:51:32.120Z,49.70
2019-05-13T18:53:58.563Z,50.20
2019-05-13T18:56:32.282Z,50.40
2019-05-13T19:01:56.896Z,49.40
2019-05-13T19:04:23.150Z,50.00
2019-05-13T19:06:51.685Z,50.10
2019-05-13T19:09:24.432Z,50.60
2019-05-13T19:11:51.551Z,51.10
2019-05-13T19:14:24.792Z,50.10
2019-05-13T19:16:51.028Z,50.80
2019-05-13T19:19:31.660Z,51.00
2019-05-13T19:22:04.789Z,50.70
2019-05-13T19:24:43.949Z,51.30
2019-05-13T19:27:12.062Z,51.00
2019-05-13T19:29:45.006Z,51.20
2019-05-13T19:32:12.447Z,51.30
2019-05-13T19:34:46.032Z,51.30
2019-05-13T19:37:19.339Z,51.70
2019-05-13T19:39:45.952Z,51.40
2019-05-13T19:42:22.144Z,51.60
2019-05-13T19:44:52.443Z,51.40
2019-05-13T19:47:25.898Z,51.60
2019-05-13T19:49:52.434Z,51.80
2019-05-13T19:52:18.821Z,51.60
2019-05-13T19:54:51.489Z,51.70
2019-05-13T19:57:24.732Z,51.90
2019-05-13T19:59:51.076Z,52.10
2019-05-13T20:02:23.920Z,51.90
2019-05-13T20:04:57.453Z,52.00
2019-05-13T20:07:23.830Z,51.60
2019-05-13T20:09:57.370Z,52.00
2019-05-13T20:12:23.900Z,52.20
2019-05-13T20:14:56.443Z,52.10
2019-05-13T20:17:29.408Z,52.20
2019-05-13T20:20:05.751Z,51.90
2019-05-13T20:22:38.914Z,52.00
2019-05-13T20:25:13.316Z,52.30
2019-05-13T20:27:42.003Z,52.20
2019-05-13T20:30:15.125Z,52.20
2019-05-13T20:32:41.767Z,52.20
2019-05-13T20:35:15.239Z,52.10
2019-05-13T20:37:41.606Z,52.40
2019-05-13T20:40:07.982Z,52.30
2019-05-13T20:42:41.414Z,52.30
2019-05-13T20:45:07.972Z,52.50
2019-05-13T20:47:42.047Z,52.50
2019-05-13T20:50:08.917Z,52.40
2019-05-13T20:52:47.812Z,52.70
2019-05-13T20:55:14.264Z,52.40
2019-05-13T20:57:48.171Z,52.80
2019-05-13T21:00:14.833Z,52.80
2019-05-13T21:02:41.817Z,52.70
2019-05-13T21:05:17.773Z,52.50
2019-05-13T21:07:51.560Z,52.70
2019-05-13T21:10:18.401Z,52.70
2019-05-13T21:12:52.119Z,52.80
2019-05-13T21:15:25.519Z,52.90
2019-05-13T21:17:51.866Z,52.90
2019-05-13T21:20:26.060Z,52.80
2019-05-13T21:22:59.404Z,52.70
2019-05-13T21:25:32.853Z,52.80
2019-05-13T21:28:06.027Z,52.80
2019-05-13T21:30:34.000Z,53.00
2019-05-13T21:33:25.303Z,53.00
2019-05-13T21:36:02.512Z,52.90
2019-05-13T21:41:24.399Z,53.10
2019-05-13T21:44:03.504Z,53.00
2019-05-13T21:46:34.219Z,53.10
2019-05-13T21:49:11.650Z,52.90
2019-05-13T21:51:41.675Z,53.20
2019-05-13T21:54:21.175Z,53.30
2019-05-13T21:56:52.569Z,53.20
2019-05-13T21:59:23.317Z,53.10
2019-05-13T22:02:06.934Z,53.30
2019-05-13T22:05:01.052Z,53.30
2019-05-13T22:07:37.841Z,53.30
2019-05-13T22:10:18.070Z,53.40
2019-05-13T22:12:44.010Z,53.30
2019-05-13T22:15:29.592Z,53.20
2019-05-13T22:18:06.734Z,53.30
2019-05-13T22:20:49.960Z,53.30
2019-05-13T22:23:21.605Z,53.40
2019-05-13T22:26:02.875Z,53.40
2019-05-13T22:28:38.146Z,53.30
2019-05-13T22:31:07.344Z,53.40
2019-05-13T22:33:46.417Z,53.50
2019-05-13T22:36:22.344Z,53.40
2019-05-13T22:39:14.040Z,53.60
2019-05-13T22:41:45.966Z,53.50
2019-05-13T22:44:45.162Z,53.50
2019-05-13T22:47:02.415Z,53.60
2019-05-13T22:49:31.053Z,53.60
2019-05-13T22:51:59.601Z,53.50
2019-05-13T22:54:34.006Z,53.60
2019-05-13T22:57:11.934Z,53.60
2019-05-13T22:59:44.302Z,53.60
2019-05-13T23:02:21.982Z,53.50
2019-05-13T23:04:56.563Z,53.50
2019-05-13T23:07:37.833Z,53.50
2019-05-13T23:10:05.594Z,54.20
2019-05-13T23:12:46.156Z,53.80
2019-05-13T23:15:21.307Z,53.70
2019-05-13T23:17:57.986Z,53.60
2019-05-13T23:20:31.880Z,53.80
2019-05-13T23:23:13.689Z,53.90
2019-05-13T23:25:43.251Z,53.80
2019-05-13T23:28:18.352Z,53.80
2019-05-13T23:30:53.627Z,53.80
2019-05-13T23:33:31.564Z,53.90
2019-05-13T23:36:02.310Z,53.90
2019-05-13T23:38:36.880Z,53.90
2019-05-13T23:41:07.623Z,54.00
2019-05-13T23:43:37.208Z,53.90
2019-05-13T23:46:11.782Z,53.80
2019-05-13T23:48:38.376Z,53.90
2019-05-13T23:51:12.904Z,53.90
2019-05-13T23:53:58.240Z,53.90
2019-05-13T23:56:32.996Z,54.00
2019-05-13T23:59:04.264Z,54.00
